Time;durP1;ratioP1;P1;durP2;ratioP2;P2;SDS_P1;SDS_P2;PMS_P1;PMS_P2;Temp;Humidity;BMP_temperature;BMP_pressure;BME280_temperature;BME280_humidity;BME280_pressure;Samples;Min_cycle;Max_cycle;Signal;HPM_P1;HPM_P2
2021/11/14 00:00:23;;;;;;;24.58;19.08;;;;;;;10.77;68.44;98645.94;5091404;28;20022;-53
2021/11/14 00:02:49;;;;;;;27.92;22.17;;;;;;;10.84;68.17;98644.09;5092722;28;20082;-53
2021/11/14 00:05:15;;;;;;;37.33;26.35;;;;;;;10.77;68.13;98638.06;5091226;28;20054;-53
2021/11/14 00:07:41;;;;;;;32.05;22.02;;;;;;;10.88;68.51;98634.78;5092551;28;20023;-53
2021/11/14 00:10:07;;;;;;;28.60;22.30;;;;;;;11.05;67.58;98642.28;5091250;28;20524;-53
2021/11/14 00:12:33;;;;;;;24.38;20.70;;;;;;;11.11;67.71;98633.56;5092512;28;20035;-53
2021/11/14 00:14:59;;;;;;;32.30;22.77;;;;;;;11.10;68.02;98632.75;5092510;28;20028;-53
2021/11/14 00:17:24;;;;;;;388.40;246.45;;;;;;;11.05;67.48;98637.03;5091126;28;20032;-53
2021/11/14 00:19:50;;;;;;;185.32;124.78;;;;;;;10.91;67.85;98631.78;5092390;28;20069;-53
2021/11/14 00:23:02;;;;;;;55.15;40.03;;;;;;;10.91;67.97;98634.41;5092377;28;20387;-53
2021/11/14 00:25:28;;;;;;;36.55;26.48;;;;;;;10.96;67.89;98620.66;5092013;28;20051;-53
2021/11/14 00:27:54;;;;;;;27.67;22.85;;;;;;;10.89;67.30;98625.13;5090945;28;20422;-53
2021/11/14 00:30:21;;;;;;;28.38;22.50;;;;;;;10.67;67.64;98614.81;5090934;28;20024;-53
2021/11/14 00:32:51;;;;;;;35.55;23.98;;;;;;;10.51;68.01;98615.25;5092161;28;20024;-53
2021/11/14 00:35:18;;;;;;;33.17;24.98;;;;;;;10.52;69.02;98619.47;5092157;28;20024;-53
2021/11/14 00:37:44;;;;;;;32.58;23.17;;;;;;;10.76;68.64;98615.41;5091762;28;20126;-53
2021/11/14 00:40:13;;;;;;;27.73;22.02;;;;;;;10.89;68.47;98619.88;5091748;28;20489;-53
2021/11/14 00:42:39;;;;;;;29.50;23.65;;;;;;;10.91;68.55;98618.66;5091945;28;20067;-53
2021/11/14 00:45:06;;;;;;;32.88;23.55;;;;;;;10.82;69.33;98616.44;5090621;28;20020;-53
2021/11/14 00:47:32;;;;;;;34.17;26.58;;;;;;;10.75;69.33;98612.00;5091980;28;20568;-53
2021/11/14 00:49:58;;;;;;;28.63;24.25;;;;;;;10.82;69.23;98616.44;5092041;28;20116;-53
2021/11/14 00:52:24;;;;;;;30.45;22.02;;;;;;;10.78;68.79;98616.84;5091931;28;20482;-53
2021/11/14 00:54:50;;;;;;;28.63;21.55;;;;;;;10.93;68.61;98611.38;5091946;28;20066;-53
2021/11/14 00:57:15;;;;;;;34.55;22.48;;;;;;;10.92;68.15;98608.94;5090622;28;20024;-52
2021/11/14 00:59:41;;;;;;;30.15;22.30;;;;;;;10.86;68.17;98615.00;5091865;28;20023;-53
2021/11/14 01:02:07;;;;;;;27.15;21.45;;;;;;;10.90;68.35;98605.72;5091873;28;20030;-53
2021/11/14 01:04:33;;;;;;;30.95;22.65;;;;;;;10.90;68.15;98605.72;5091729;28;20546;-53
2021/11/14 01:06:58;;;;;;;29.98;22.83;;;;;;;10.86;68.25;98607.94;5092035;28;20030;-53
2021/11/14 01:09:26;;;;;;;30.77;23.27;;;;;;;10.83;68.09;98610.97;5090480;28;20404;-53
2021/11/14 01:11:52;;;;;;;29.35;23.20;;;;;;;10.85;68.30;98611.59;5091769;28;20081;-53
2021/11/14 01:14:18;;;;;;;28.77;23.73;;;;;;;10.88;68.21;98607.75;5091756;28;20024;-53
2021/11/14 01:16:44;;;;;;;29.08;24.13;;;;;;;10.88;68.71;98605.91;5091710;28;20442;-53
2021/11/14 01:19:09;;;;;;;32.53;24.02;;;;;;;10.89;69.50;98607.53;5091673;28;20096;-53
2021/11/14 01:21:36;;;;;;;33.38;23.70;;;;;;;10.91;69.75;98607.34;5091647;28;20115;-52
2021/11/14 01:24:02;;;;;;;29.40;23.30;;;;;;;10.85;69.13;98605.53;5091317;28;20032;-53
2021/11/14 01:26:29;;;;;;;26.85;21.95;;;;;;;10.74;69.26;98606.94;5091588;28;20439;-53
2021/11/14 01:28:55;;;;;;;30.85;21.02;;;;;;;10.68;69.42;98597.25;5091609;28;20020;-53
2021/11/14 01:31:22;;;;;;;27.63;21.23;;;;;;;10.67;69.66;98598.28;5091597;28;20116;-53
2021/11/14 01:33:47;;;;;;;28.48;22.63;;;;;;;10.67;69.80;98595.66;5090217;28;20032;-53
2021/11/14 01:36:13;;;;;;;25.98;20.33;;;;;;;10.77;69.63;98601.31;5091546;28;20516;-53
2021/11/14 01:38:39;;;;;;;33.53;20.38;;;;;;;10.90;69.38;98603.09;5091802;28;20078;-53
2021/11/14 01:41:10;;;;;;;29.98;23.50;;;;;;;10.94;68.84;98604.28;5091437;28;20020;-54
2021/11/14 01:43:43;;;;;;;37.22;21.85;;;;;;;11.02;68.96;98598.81;5090201;28;20035;-53
2021/11/14 01:46:10;;;;;;;28.20;21.95;;;;;;;11.10;68.25;98603.84;5091361;28;20028;-53
2021/11/14 01:48:36;;;;;;;30.27;22.05;;;;;;;11.09;67.88;98609.34;5091433;28;20031;-54
2021/11/14 01:51:03;;;;;;;27.02;19.58;;;;;;;11.26;68.50;98604.44;5092963;28;20378;-53
2021/11/14 01:53:30;;;;;;;26.63;20.73;;;;;;;11.55;67.92;98605.72;5095174;28;20490;-53
2021/11/14 01:55:56;;;;;;;29.15;21.40;;;;;;;11.68;67.26;98600.44;5093825;28;20063;-53
2021/11/14 01:58:24;;;;;;;29.73;21.35;;;;;;;11.56;66.68;98596.84;5095091;28;20484;-53
2021/11/14 02:00:57;;;;;;;29.13;22.30;;;;;;;11.42;66.88;98608.44;5095005;28;20027;-53
2021/11/14 02:03:23;;;;;;;33.85;21.35;;;;;;;11.35;67.38;98605.84;5095082;28;20497;-53
2021/11/14 02:05:49;;;;;;;31.30;20.50;;;;;;;11.48;67.67;98600.50;5093492;28;20024;-54
2021/11/14 02:08:16;;;;;;;29.05;21.40;;;;;;;11.66;66.96;98591.94;5094877;28;20024;-53
2021/11/14 02:10:44;;;;;;;32.00;25.55;;;;;;;11.68;66.63;98604.91;5093514;28;20539;-53
2021/11/14 02:13:11;;;;;;;28.90;22.15;;;;;;;11.62;66.30;98593.38;5094817;28;20428;-53
2021/11/14 02:15:39;;;;;;;26.45;21.33;;;;;;;11.59;66.60;98601.69;5094767;28;20031;-53
2021/11/14 02:18:07;;;;;;;32.42;21.90;;;;;;;11.58;66.92;98595.63;5095006;28;20062;-53
2021/11/14 02:20:34;;;;;;;27.55;22.92;;;;;;;11.60;66.36;98603.31;5094635;28;20016;-53
2021/11/14 02:23:01;;;;;;;27.83;22.15;;;;;;;11.46;66.91;98592.03;5093281;28;20537;-52
2021/11/14 02:25:27;;;;;;;28.27;20.88;;;;;;;11.47;66.76;98591.03;5094300;28;20561;-53
2021/11/14 02:27:55;;;;;;;28.40;21.40;;;;;;;11.50;66.78;98595.06;5094495;28;20024;-53
2021/11/14 02:30:22;;;;;;;28.55;21.85;;;;;;;11.48;66.51;98589.22;5094456;28;20040;-53
2021/11/14 02:32:52;;;;;;;27.80;21.98;;;;;;;11.48;66.72;98584.75;5094472;28;20050;-53
2021/11/14 02:35:18;;;;;;;27.95;22.02;;;;;;;11.45;66.26;98585.19;5094421;28;20060;-53
2021/11/14 02:37:44;;;;;;;31.85;20.08;;;;;;;11.40;66.65;98579.72;5094664;28;20039;-53
2021/11/14 02:40:11;;;;;;;27.92;20.73;;;;;;;11.43;67.16;98581.13;5094276;28;20020;-53
2021/11/14 02:42:37;;;;;;;27.45;19.17;;;;;;;11.55;66.55;98577.66;5094259;28;20384;-53
2021/11/14 02:45:05;;;;;;;27.27;22.02;;;;;;;11.53;66.38;98573.59;5094130;28;20016;-53
2021/11/14 02:47:31;;;;;;;27.73;21.10;;;;;;;11.53;66.49;98576.22;5094134;28;20020;-53
2021/11/14 02:49:57;;;;;;;28.35;22.08;;;;;;;11.48;66.41;98570.81;5094093;28;20430;-53
2021/11/14 02:52:23;;;;;;;27.70;21.98;;;;;;;11.62;66.96;98576.81;5094054;28;20080;-53
2021/11/14 02:54:48;;;;;;;31.63;21.05;;;;;;;11.82;66.66;98568.84;5094025;28;20102;-53
2021/11/14 02:57:14;;;;;;;40.38;36.05;;;;;;;11.90;65.75;98564.16;5092604;28;20027;-53
2021/11/14 02:59:40;;;;;;;27.80;21.02;;;;;;;11.91;65.31;98562.31;5092631;28;20035;-53
2021/11/14 03:02:06;;;;;;;26.08;21.40;;;;;;;11.73;65.62;98565.63;5092948;28;20015;-53
2021/11/14 03:04:32;;;;;;;28.15;22.05;;;;;;;11.54;66.06;98562.09;5093775;28;20032;-53
2021/11/14 03:06:59;;;;;;;29.10;22.02;;;;;;;11.37;66.42;98562.56;5093716;28;20089;-53
2021/11/14 03:09:26;;;;;;;25.63;20.90;;;;;;;11.28;66.68;98558.53;5092441;28;20569;-53
2021/11/14 03:11:53;;;;;;;29.52;22.35;;;;;;;11.25;66.54;98561.59;5093685;28;20107;-53
2021/11/14 03:14:20;;;;;;;25.42;22.15;;;;;;;11.15;66.79;98563.88;5092276;28;20038;-53
2021/11/14 03:16:46;;;;;;;25.80;20.55;;;;;;;11.09;67.02;98565.50;5092256;28;20020;-53
2021/11/14 03:19:12;;;;;;;28.05;20.38;;;;;;;11.08;66.89;98563.06;5092545;28;20031;-53
2021/11/14 03:21:39;;;;;;;28.45;21.58;;;;;;;11.03;66.98;98558.44;5093482;28;20565;-53
2021/11/14 03:24:05;;;;;;;30.85;22.52;;;;;;;11.03;67.26;98561.06;5093093;28;20055;-53
2021/11/14 03:26:31;;;;;;;27.85;21.17;;;;;;;10.98;67.51;98564.28;5093355;28;20517;-53
2021/11/14 03:28:57;;;;;;;28.83;19.90;;;;;;;10.98;67.67;98558.22;5093366;28;20132;-52
2021/11/14 03:31:25;;;;;;;27.20;19.27;;;;;;;11.05;68.05;98556.41;5093262;28;20032;-53
2021/11/14 03:33:51;;;;;;;26.38;19.55;;;;;;;11.26;67.77;98559.78;5093292;28;20470;-53
2021/11/14 03:36:18;;;;;;;25.20;20.15;;;;;;;11.55;67.51;98567.13;5091909;28;20114;-54
2021/11/14 03:38:46;;;;;;;30.52;19.75;;;;;;;11.58;66.87;98561.44;5093203;28;20020;-53
2021/11/14 03:41:19;;;;;;;26.92;19.85;;;;;;;11.83;66.27;98559.91;5093125;28;20024;-53
2021/11/14 03:43:45;;;;;;;27.75;20.08;;;;;;;11.96;66.28;98559.88;5092060;28;20024;-52
2021/11/14 03:46:12;;;;;;;29.90;21.17;;;;;;;11.98;65.81;98566.53;5092927;28;20508;-53
2021/11/14 03:48:42;;;;;;;29.48;20.67;;;;;;;11.98;65.36;98569.16;5092954;28;20549;-53
2021/11/14 03:51:09;;;;;;;27.75;20.63;;;;;;;11.93;65.21;98562.91;5092891;28;20167;-53
2021/11/14 03:53:36;;;;;;;27.90;22.05;;;;;;;11.81;64.87;98562.75;5092889;28;20024;-53
2021/11/14 03:56:03;;;;;;;29.90;21.63;;;;;;;11.75;65.35;98574.09;5092813;28;20035;-53
2021/11/14 03:58:30;;;;;;;29.52;20.75;;;;;;;11.67;65.41;98569.09;5092814;28;20179;-53
2021/11/14 04:00:59;;;;;;;24.65;20.52;;;;;;;11.62;65.75;98569.72;5092780;28;20055;-53
2021/11/14 04:03:27;;;;;;;33.80;24.35;;;;;;;11.74;65.53;98568.03;5092625;28;20020;-52
2021/11/14 04:05:53;;;;;;;26.60;22.15;;;;;;;11.79;65.82;98570.03;5091267;28;20103;-54
2021/11/14 04:08:23;;;;;;;30.27;22.63;;;;;;;11.99;64.99;98557.63;5092601;28;20103;-53
2021/11/14 04:10:51;;;;;;;31.88;24.10;;;;;;;11.91;64.76;98557.06;5092892;28;20053;-52
2021/11/14 04:13:18;;;;;;;36.13;29.63;;;;;;;11.77;64.99;98554.50;5092373;28;20028;-53
2021/11/14 04:15:44;;;;;;;28.55;21.17;;;;;;;11.60;65.28;98559.41;5092493;28;20080;-53
2021/11/14 04:18:10;;;;;;;33.60;22.85;;;;;;;11.52;65.29;98561.50;5092447;28;20016;-53
2021/11/14 04:20:38;;;;;;;33.22;23.65;;;;;;;11.36;65.44;98560.13;5092436;28;20048;-53
2021/11/14 04:23:05;;;;;;;33.17;23.92;;;;;;;10.99;66.31;98558.03;5092695;28;20030;-53
2021/11/14 04:25:31;;;;;;;31.70;25.15;;;;;;;10.84;67.32;98560.06;5092077;28;20052;-53
2021/11/14 04:27:58;;;;;;;27.80;23.05;;;;;;;10.74;67.99;98557.06;5091019;28;20067;-53
2021/11/14 04:30:25;;;;;;;37.53;23.08;;;;;;;10.93;68.74;98558.84;5092238;28;20066;-53
2021/11/14 04:32:52;;;;;;;30.60;22.48;;;;;;;11.36;68.19;98553.06;5092208;28;20016;-53
2021/11/14 04:35:18;;;;;;;31.88;22.73;;;;;;;11.78;66.86;98556.09;5092170;28;20024;-52
2021/11/14 04:37:48;;;;;;;36.05;23.85;;;;;;;12.04;66.17;98553.56;5092159;28;20494;-53
2021/11/14 04:40:15;;;;;;;33.53;24.73;;;;;;;12.41;65.63;98546.56;5092443;28;20039;-52
2021/11/14 04:42:40;;;;;;;41.47;25.15;;;;;;;12.77;64.87;98548.47;5092105;28;20022;-53
2021/11/14 04:45:07;;;;;;;36.05;25.52;;;;;;;13.02;63.91;98550.25;5092037;28;20016;-53
2021/11/14 04:47:33;;;;;;;46.17;27.20;;;;;;;13.03;63.49;98551.88;5092039;28;20024;-53
2021/11/14 04:49:59;;;;;;;46.83;27.25;;;;;;;12.83;63.89;98548.63;5091991;28;20515;-52
2021/11/14 04:52:24;;;;;;;48.00;29.13;;;;;;;12.62;64.00;98549.88;5090644;28;20103;-53
2021/11/14 04:54:50;;;;;;;43.40;29.83;;;;;;;12.49;64.96;98553.41;5092013;28;20027;-53
2021/11/14 04:57:16;;;;;;;49.70;32.38;;;;;;;12.48;64.33;98560.50;5091890;28;20062;-53
2021/11/14 04:59:42;;;;;;;47.17;31.67;;;;;;;12.20;65.08;98550.41;5091884;28;20493;-52
2021/11/14 05:02:07;;;;;;;39.67;26.45;;;;;;;11.97;65.46;98546.50;5090531;28;20121;-52
2021/11/14 05:04:33;;;;;;;48.97;30.33;;;;;;;11.93;66.33;98550.59;5091765;28;20099;-53
2021/11/14 05:06:59;;;;;;;47.60;29.20;;;;;;;12.05;66.05;98544.63;5091819;28;20051;-53
2021/11/14 05:09:24;;;;;;;48.88;30.40;;;;;;;11.99;66.05;98543.66;5090458;28;20027;-53
2021/11/14 05:11:50;;;;;;;39.17;26.60;;;;;;;11.95;66.70;98543.28;5092025;28;20028;-53
2021/11/14 05:14:16;;;;;;;40.67;27.23;;;;;;;12.27;66.25;98545.06;5091814;28;20027;-53
2021/11/14 05:16:42;;;;;;;40.47;26.70;;;;;;;12.69;65.62;98540.84;5091716;28;20397;-53
2021/11/14 05:19:07;;;;;;;41.30;25.40;;;;;;;12.95;64.76;98539.78;5090381;28;20038;-53
2021/11/14 05:21:33;;;;;;;34.97;25.15;;;;;;;13.10;64.21;98547.34;5091716;28;20054;-53
2021/11/14 05:23:59;;;;;;;36.10;25.08;;;;;;;13.19;63.25;98539.94;5089886;28;20051;-52
2021/11/14 05:26:25;;;;;;;35.55;24.42;;;;;;;13.16;63.24;98529.84;5095451;28;20043;-53
2021/11/14 05:28:50;;;;;;;37.50;24.45;;;;;;;13.26;63.13;98545.13;5094400;28;20032;-52
2021/11/14 05:31:16;;;;;;;32.72;25.02;;;;;;;13.29;62.89;98542.88;5095674;28;20028;-53
2021/11/14 05:33:42;;;;;;;34.58;25.38;;;;;;;13.27;62.24;98541.47;5095588;28;20012;-53
2021/11/14 05:36:07;;;;;;;35.13;25.38;;;;;;;12.88;63.36;98546.97;5096157;28;20040;-53
2021/11/14 05:38:33;;;;;;;34.08;24.45;;;;;;;12.82;63.68;98549.66;5095586;28;20022;-53
2021/11/14 05:40:59;;;;;;;36.15;25.15;;;;;;;12.47;63.73;98548.34;5095473;28;20028;-52
2021/11/14 05:43:24;;;;;;;31.33;23.88;;;;;;;12.21;64.62;98557.25;5095400;28;20509;-53
2021/11/14 05:45:50;;;;;;;34.70;24.10;;;;;;;11.86;65.81;98555.03;5093909;28;20024;-52
2021/11/14 05:48:16;;;;;;;29.27;24.00;;;;;;;11.66;66.25;98560.41;5094181;28;20091;-52
2021/11/14 05:50:41;;;;;;;29.10;22.35;;;;;;;11.67;66.88;98561.22;5095167;28;20024;-52
2021/11/14 05:53:09;;;;;;;29.55;22.98;;;;;;;11.79;66.83;98562.16;5095239;28;20397;-52
2021/11/14 05:55:35;;;;;;;29.23;23.40;;;;;;;11.87;66.70;98556.66;5095213;28;20085;-52
2021/11/14 05:58:14;;;;;;;28.30;22.05;;;;;;;12.02;66.80;98560.84;5095157;28;20024;-52
2021/11/14 06:01:07;;;;;;;29.80;21.88;;;;;;;12.08;66.57;98554.75;5095070;28;20024;-53
2021/11/14 06:06:08;;;;;;;27.67;21.65;;;;;;;12.24;66.31;98561.31;5094966;28;20040;-52
2021/11/14 06:08:35;;;;;;;26.85;20.63;;;;;;;12.35;66.34;98560.59;5094892;28;20028;-52
2021/11/14 06:11:01;;;;;;;29.00;18.60;;;;;;;12.40;65.77;98555.50;5094817;28;20020;-53
2021/11/14 06:13:29;;;;;;;24.42;20.15;;;;;;;12.36;65.62;98559.59;5093604;28;20024;-53
2021/11/14 06:15:55;;;;;;;26.98;21.15;;;;;;;12.32;65.72;98556.56;5094801;28;20435;-52
2021/11/14 06:18:21;;;;;;;28.90;20.60;;;;;;;12.26;66.11;98557.44;5094740;28;20024;-52
2021/11/14 06:20:48;;;;;;;25.98;18.77;;;;;;;12.24;65.81;98558.69;5093392;28;20025;-52
2021/11/14 06:23:14;;;;;;;23.67;18.13;;;;;;;12.22;66.03;98560.72;5094715;28;20016;-52
2021/11/14 06:25:40;;;;;;;26.70;20.92;;;;;;;11.94;66.07;98567.97;5094328;28;20185;-53
2021/11/14 06:28:06;;;;;;;27.30;19.77;;;;;;;11.75;66.95;98567.03;5094647;28;20481;-52
2021/11/14 06:30:32;;;;;;;24.85;18.27;;;;;;;11.70;67.38;98564.22;5094562;28;20058;-52
2021/11/14 06:32:58;;;;;;;24.98;18.85;;;;;;;11.64;67.17;98565.06;5094433;28;20046;-52
2021/11/14 06:35:24;;;;;;;27.52;19.92;;;;;;;11.51;68.06;98563.31;5094202;28;20020;-53
2021/11/14 06:37:50;;;;;;;23.83;17.33;;;;;;;11.56;67.84;98563.47;5093313;28;20024;-53
2021/11/14 06:40:16;;;;;;;22.23;17.30;;;;;;;11.48;67.56;98570.81;5094311;28;20016;-52
2021/11/14 06:42:42;;;;;;;22.63;17.50;;;;;;;11.33;68.16;98571.06;5094265;28;20034;-52
2021/11/14 06:45:08;;;;;;;25.52;18.60;;;;;;;11.33;68.74;98573.72;5092844;28;20024;-53
2021/11/14 06:47:34;;;;;;;23.00;16.17;;;;;;;11.45;68.49;98577.28;5094224;28;20020;-52
2021/11/14 06:50:00;;;;;;;19.40;15.63;;;;;;;11.62;68.19;98569.72;5092817;28;20023;-52
2021/11/14 06:52:25;;;;;;;22.63;16.73;;;;;;;11.76;67.77;98573.91;5094124;28;20027;-52
2021/11/14 06:54:52;;;;;;;25.45;18.38;;;;;;;11.84;68.09;98580.75;5094061;28;20024;-53
2021/11/14 06:57:19;;;;;;;26.15;15.93;;;;;;;12.15;67.95;98563.38;5094034;28;20031;-52
2021/11/14 06:59:46;;;;;;;23.48;14.30;;;;;;;12.59;66.92;98570.31;5094003;28;20028;-53
2021/11/14 07:02:12;;;;;;;15.95;14.20;;;;;;;12.69;65.14;98574.28;5093919;28;20024;-53
2021/11/14 07:04:38;;;;;;;17.23;12.88;;;;;;;12.66;65.43;98574.72;5092432;28;20124;-52
2021/11/14 07:07:05;;;;;;;21.65;14.40;;;;;;;12.62;65.16;98569.09;5093800;28;20098;-53
2021/11/14 07:09:31;;;;;;;14.70;11.98;;;;;;;12.61;64.81;98579.81;5093786;28;20460;-52
2021/11/14 07:11:56;;;;;;;15.18;12.23;;;;;;;12.48;65.27;98576.28;5093598;28;20112;-52
2021/11/14 07:14:24;;;;;;;21.23;12.88;;;;;;;12.40;65.15;98579.19;5093704;28;20026;-52
2021/11/14 07:16:51;;;;;;;13.32;11.60;;;;;;;12.23;65.74;98571.00;5093485;28;20032;-52
2021/11/14 07:19:17;;;;;;;14.57;11.35;;;;;;;12.19;65.92;98572.44;5093858;28;20099;-52
2021/11/14 07:21:43;;;;;;;19.83;11.45;;;;;;;12.31;66.08;98586.53;5093511;28;20112;-52
2021/11/14 07:24:09;;;;;;;13.90;10.90;;;;;;;12.39;65.68;98588.09;5093174;28;20420;-52
2021/11/14 07:26:34;;;;;;;15.30;10.73;;;;;;;12.46;65.45;98593.31;5093487;28;20032;-52
2021/11/14 07:29:00;;;;;;;19.60;10.38;;;;;;;12.52;65.28;98588.00;5093357;28;20478;-52
2021/11/14 07:31:26;;;;;;;11.13;9.35;;;;;;;12.62;65.19;98592.78;5093416;28;20095;-52
2021/11/14 07:33:52;;;;;;;11.00;8.55;;;;;;;12.72;65.02;98592.28;5091957;28;20375;-53
2021/11/14 07:36:18;;;;;;;13.77;9.32;;;;;;;12.76;64.98;98601.38;5093234;28;20052;-52
2021/11/14 07:38:43;;;;;;;17.95;13.90;;;;;;;12.70;64.81;98599.59;5093230;28;20028;-53
2021/11/14 07:41:09;;;;;;;21.48;12.68;;;;;;;12.73;64.67;98605.22;5093116;28;20069;-52
2021/11/14 07:43:35;;;;;;;12.20;9.77;;;;;;;12.83;64.41;98602.09;5093094;28;20024;-53
2021/11/14 07:46:01;;;;;;;14.02;9.00;;;;;;;12.93;64.30;98604.25;5092954;28;20059;-53
2021/11/14 07:48:27;;;;;;;13.13;8.13;;;;;;;12.92;63.70;98595.53;5091281;28;20031;-52
2021/11/14 07:50:54;;;;;;;13.70;7.68;;;;;;;12.83;64.37;98604.75;5092955;28;20024;-52
2021/11/14 07:53:21;;;;;;;11.57;7.75;;;;;;;12.94;64.23;98611.13;5092930;28;20486;-52
2021/11/14 07:55:47;;;;;;;12.65;7.53;;;;;;;12.97;63.63;98595.69;5092872;28;20077;-53
2021/11/14 07:58:13;;;;;;;9.82;7.45;;;;;;;12.93;64.00;98605.03;5092772;28;20028;-53
2021/11/14 08:00:39;;;;;;;12.73;7.10;;;;;;;13.04;63.67;98602.72;5092827;28;20099;-53
2021/11/14 08:03:05;;;;;;;17.98;14.25;;;;;;;13.25;62.97;98606.78;5091446;28;20115;-53
2021/11/14 08:05:31;;;;;;;12.85;7.82;;;;;;;13.47;62.83;98605.31;5092563;28;20020;-52
2021/11/14 08:07:58;;;;;;;9.27;7.85;;;;;;;13.44;62.24;98608.41;5092706;28;20024;-53
2021/11/14 08:10:24;;;;;;;11.23;7.80;;;;;;;13.41;62.42;98613.31;5092600;28;20099;-52
2021/11/14 08:12:51;;;;;;;14.32;8.23;;;;;;;13.45;62.08;98610.00;5091262;28;20024;-53
2021/11/14 08:15:18;;;;;;;11.05;8.27;;;;;;;13.41;62.48;98611.47;5092476;28;20027;-52
2021/11/14 08:17:45;;;;;;;9.27;7.45;;;;;;;13.38;62.50;98607.47;5092422;28;20020;-52
2021/11/14 08:20:11;;;;;;;8.60;7.35;;;;;;;13.38;62.49;98606.63;5092325;28;20016;-53
2021/11/14 08:22:37;;;;;;;8.80;7.32;;;;;;;13.37;62.36;98607.69;5092406;28;20100;-52
2021/11/14 08:25:06;;;;;;;11.85;7.70;;;;;;;13.48;62.40;98604.31;5091918;28;20048;-52
2021/11/14 08:27:34;;;;;;;8.38;6.95;;;;;;;13.58;62.06;98603.78;5092281;28;20058;-52
2021/11/14 08:30:01;;;;;;;21.05;8.73;;;;;;;13.63;61.83;98611.84;5092298;28;20447;-53
2021/11/14 08:32:27;;;;;;;12.43;7.38;;;;;;;13.70;62.14;98609.09;5092322;28;20016;-53
2021/11/14 08:34:53;;;;;;;8.80;7.57;;;;;;;13.83;61.69;98602.88;5092295;28;20035;-53
2021/11/14 08:37:19;;;;;;;9.40;6.72;;;;;;;13.91;61.43;98605.19;5092163;28;20046;-53
2021/11/14 08:39:46;;;;;;;12.68;7.18;;;;;;;13.95;60.90;98606.34;5092202;28;20494;-53
2021/11/14 08:42:12;;;;;;;7.80;5.97;;;;;;;13.90;60.96;98595.66;5091020;28;20402;-53
2021/11/14 08:44:38;;;;;;;16.88;9.85;;;;;;;13.89;60.94;98589.59;5090685;28;20140;-52
2021/11/14 08:47:04;;;;;;;41.33;37.05;;;;;;;14.05;60.87;98592.63;5090679;28;20024;-53
2021/11/14 08:49:30;;;;;;;24.88;20.63;;;;;;;14.14;60.33;98594.69;5092019;28;20102;-52
2021/11/14 08:51:56;;;;;;;18.88;16.95;;;;;;;14.27;59.87;98592.91;5091958;28;20018;-53
2021/11/14 08:54:23;;;;;;;12.45;8.48;;;;;;;14.42;59.37;98595.13;5090609;28;20028;-52
2021/11/14 08:56:49;;;;;;;15.88;8.48;;;;;;;14.61;59.30;98587.91;5091910;28;20020;-53
2021/11/14 08:59:15;;;;;;;10.75;7.57;;;;;;;14.76;58.75;98583.78;5089750;28;20031;-52
2021/11/14 09:01:41;;;;;;;9.32;6.93;;;;;;;14.73;58.66;98584.25;5090530;28;20409;-53
2021/11/14 09:04:07;;;;;;;8.73;6.80;;;;;;;14.60;58.90;98587.13;5091772;28;20020;-52
2021/11/14 09:06:37;;;;;;;10.98;6.82;;;;;;;14.56;58.95;98576.19;5090511;28;20464;-53
2021/11/14 09:09:10;;;;;;;8.73;6.28;;;;;;;14.56;59.01;98570.91;5091900;28;20110;-53
2021/11/14 09:11:42;;;;;;;6.75;5.95;;;;;;;14.58;58.81;98573.34;5091841;28;20402;-53
2021/11/14 09:14:08;;;;;;;9.70;6.35;;;;;;;14.63;58.77;98576.13;5091745;28;20435;-53
2021/11/14 09:16:35;;;;;;;11.52;5.90;;;;;;;14.64;58.92;98580.34;5090423;28;20027;-52
2021/11/14 09:19:02;;;;;;;10.07;6.45;;;;;;;14.54;58.89;98569.53;5091770;28;20020;-53
2021/11/14 09:21:28;;;;;;;7.20;5.15;;;;;;;14.46;58.76;98572.50;5091651;28;20560;-52
2021/11/14 09:23:54;;;;;;;7.53;5.40;;;;;;;14.35;59.03;98574.91;5091486;28;20028;-53
2021/11/14 09:26:20;;;;;;;9.57;5.22;;;;;;;14.42;59.19;98574.78;5091545;28;20063;-52
2021/11/14 09:28:46;;;;;;;7.03;6.28;;;;;;;14.49;59.05;98574.69;5091658;28;20016;-53
2021/11/14 09:31:12;;;;;;;8.07;4.65;;;;;;;14.60;58.99;98575.75;5091520;28;20117;-53
2021/11/14 09:33:39;;;;;;;7.88;5.30;;;;;;;14.64;58.64;98577.72;5090345;28;20023;-53
2021/11/14 09:36:06;;;;;;;6.60;4.25;;;;;;;14.56;58.75;98576.19;5091620;28;20051;-53
2021/11/14 09:38:34;;;;;;;6.80;3.63;;;;;;;14.52;58.65;98574.22;5091575;28;20023;-53
2021/11/14 09:41:05;;;;;;;5.35;4.00;;;;;;;14.44;58.98;98578.00;5091579;28;20101;-53
2021/11/14 09:43:32;;;;;;;3.97;3.20;;;;;;;14.39;58.82;98575.25;5091549;28;20024;-53
2021/11/14 09:45:59;;;;;;;4.90;3.67;;;;;;;14.34;58.88;98578.56;5091410;28;20031;-52
2021/11/14 09:48:25;;;;;;;4.93;3.90;;;;;;;14.36;59.08;98578.34;5091515;28;20016;-53
2021/11/14 09:50:52;;;;;;;6.10;3.75;;;;;;;14.44;58.82;98579.84;5090122;28;20614;-52
2021/11/14 09:53:19;;;;;;;6.60;3.00;;;;;;;14.43;58.70;98586.97;5091414;28;20490;-53
2021/11/14 09:55:45;;;;;;;6.57;3.08;;;;;;;14.41;58.89;98588.22;5091669;28;20028;-52
2021/11/14 09:58:11;;;;;;;42.28;37.83;;;;;;;14.50;58.65;98578.94;5091366;28;20027;-53
2021/11/14 10:00:39;;;;;;;5.63;4.03;;;;;;;14.56;58.67;98585.97;5089990;28;20024;-53
2021/11/14 10:03:07;;;;;;;9.18;4.07;;;;;;;14.62;58.33;98590.34;5091364;28;20020;-53
2021/11/14 10:05:34;;;;;;;6.40;3.63;;;;;;;14.69;57.97;98588.41;5091176;28;20020;-53
2021/11/14 10:08:05;;;;;;;4.75;3.25;;;;;;;14.74;57.92;98593.78;5091307;28;20554;-53
2021/11/14 10:10:36;;;;;;;4.40;3.10;;;;;;;14.81;57.94;98585.75;5092102;28;20034;-53
2021/11/14 10:13:16;;;;;;;4.93;3.08;;;;;;;14.94;57.11;98582.06;5094933;28;20504;-51
2021/11/14 10:15:44;;;;;;;4.57;2.80;;;;;;;15.06;56.84;98579.44;5093467;28;20443;-53
2021/11/14 10:18:12;;;;;;;3.97;2.63;;;;;;;15.34;56.14;98578.69;5094804;28;20020;-53
2021/11/14 10:20:38;;;;;;;4.10;2.60;;;;;;;15.73;55.67;98576.28;5094642;28;20028;-53
2021/11/14 10:23:12;;;;;;;3.67;2.40;;;;;;;16.14;54.42;98574.38;5093412;28;20024;-51
2021/11/14 10:25:40;;;;;;;5.13;2.00;;;;;;;16.35;53.44;98573.66;5094356;28;20529;-51
2021/11/14 10:28:06;;;;;;;3.10;2.47;;;;;;;16.48;52.70;98575.19;5094605;28;20028;-50
2021/11/14 10:30:38;;;;;;;3.63;2.88;;;;;;;16.45;53.05;98565.06;5094531;28;20039;-50
2021/11/14 10:33:08;;;;;;;2.90;2.45;;;;;;;16.44;52.82;98563.47;5094591;28;20032;-51
2021/11/14 10:35:36;;;;;;;3.25;2.45;;;;;;;16.35;53.10;98567.56;5094475;28;20032;-50
2021/11/14 10:38:05;;;;;;;3.53;2.22;;;;;;;16.29;53.00;98557.94;5094394;28;20024;-50
2021/11/14 10:40:37;;;;;;;3.38;2.30;;;;;;;16.18;52.76;98560.41;5094279;28;20013;-50
2021/11/14 10:43:04;;;;;;;5.18;2.92;;;;;;;16.02;53.12;98565.66;5094383;28;20028;-51
2021/11/14 10:45:34;;;;;;;5.32;2.75;;;;;;;15.72;53.97;98567.53;5094136;28;20027;-50
2021/11/14 10:48:15;;;;;;;4.28;2.40;;;;;;;15.40;54.75;98561.88;5094595;28;20078;-51
2021/11/14 10:50:44;;;;;;;6.22;2.85;;;;;;;15.11;55.47;98561.84;5094175;28;20435;-51
2021/11/14 10:53:22;;;;;;;6.57;3.15;;;;;;;14.90;56.24;98557.16;5094123;28;20028;-51
2021/11/14 10:55:53;;;;;;;4.72;2.88;;;;;;;14.76;56.79;98554.72;5094077;28;20026;-51
2021/11/14 10:58:22;;;;;;;5.50;2.42;;;;;;;14.61;56.85;98553.59;5094028;28;20462;-50
2021/11/14 11:00:50;;;;;;;3.53;2.50;;;;;;;14.46;57.13;98562.72;5093955;28;20052;-51
2021/11/14 11:03:16;;;;;;;6.32;2.72;;;;;;;14.50;57.29;98550.69;5093869;28;20024;-53
2021/11/14 11:05:42;;;;;;;2.70;1.90;;;;;;;14.58;56.87;98555.66;5092442;28;20032;-53
2021/11/14 11:08:18;;;;;;;3.30;2.13;;;;;;;14.70;56.90;98557.50;5093862;28;20028;-53
2021/11/14 11:10:51;;;;;;;7.20;3.03;;;;;;;14.75;56.48;98558.44;5093780;28;20028;-52
2021/11/14 11:13:39;;;;;;;6.35;2.80;;;;;;;14.82;56.48;98547.72;5093823;28;20032;-53
2021/11/14 11:16:11;;;;;;;4.47;2.55;;;;;;;15.04;56.07;98539.22;5092363;28;20383;-51
2021/11/14 11:18:41;;;;;;;3.45;2.50;;;;;;;15.33;55.83;98538.22;5093673;28;20028;-53
2021/11/14 11:21:07;;;;;;;2.85;2.15;;;;;;;15.46;55.17;98539.00;5093929;28;20066;-51
2021/11/14 11:23:40;;;;;;;5.80;2.35;;;;;;;15.53;54.63;98542.28;5091482;28;20020;-51